createdAt,value
2018-12-14T00:00:51.602Z,14.73
2018-12-14T00:03:21.921Z,8.10
2018-12-14T00:05:52.260Z,8.07
2018-12-14T00:08:21.084Z,10.37
2018-12-14T00:10:49.392Z,8.23
2018-12-14T00:13:18.240Z,8.50
2018-12-14T00:15:46.697Z,9.33
2018-12-14T00:18:15.019Z,11.37
2018-12-14T00:20:43.653Z,8.53
2018-12-14T00:23:13.654Z,10.00
2018-12-14T00:25:41.923Z,7.30
2018-12-14T00:28:10.256Z,8.03
2018-12-14T00:30:38.552Z,10.73
2018-12-14T00:33:06.847Z,7.43
2018-12-14T00:35:35.127Z,6.57
2018-12-14T00:38:03.912Z,5.10
2018-12-14T00:40:32.190Z,6.87
2018-12-14T00:43:00.505Z,5.30
2018-12-14T00:45:28.784Z,4.80
2018-12-14T00:47:57.317Z,8.73
2018-12-14T00:50:25.605Z,7.60
2018-12-14T00:52:53.908Z,7.63
2018-12-14T00:55:22.451Z,7.67
2018-12-14T00:57:51.128Z,6.23
2018-12-14T01:00:19.396Z,6.27
2018-12-14T01:02:47.785Z,6.97
2018-12-14T01:05:16.067Z,7.70
2018-12-14T01:07:44.515Z,10.17
2018-12-14T01:10:13.011Z,6.07
2018-12-14T01:12:41.289Z,7.07
2018-12-14T01:15:09.676Z,6.90
2018-12-14T01:17:37.985Z,6.47
2018-12-14T01:20:07.936Z,7.87
2018-12-14T01:22:37.243Z,6.97
2018-12-14T01:25:05.624Z,9.10
2018-12-14T01:27:33.967Z,7.10
2018-12-14T01:30:02.568Z,8.67
2018-12-14T01:32:31.104Z,7.60
2018-12-14T01:34:59.732Z,8.17
2018-12-14T01:37:29.085Z,7.23
2018-12-14T01:39:57.372Z,4.70
2018-12-14T01:42:25.677Z,5.50
2018-12-14T01:44:54.108Z,7.47
2018-12-14T01:47:24.390Z,6.00
2018-12-14T01:49:52.839Z,6.17
2018-12-14T01:52:21.976Z,7.30
2018-12-14T01:54:50.513Z,8.33
2018-12-14T01:57:19.164Z,6.20
2018-12-14T01:59:53.305Z,5.00
2018-12-14T02:02:21.700Z,6.30
2018-12-14T02:04:49.997Z,9.40
2018-12-14T02:07:18.312Z,7.83
2018-12-14T02:09:46.595Z,7.93
2018-12-14T02:12:15.483Z,6.43
2018-12-14T02:14:43.769Z,12.73
2018-12-14T02:17:12.087Z,8.47
2018-12-14T02:19:40.671Z,6.87
2018-12-14T02:22:08.961Z,7.27
2018-12-14T02:24:37.256Z,4.63
2018-12-14T02:27:05.599Z,7.13
2018-12-14T02:29:33.881Z,7.80
2018-12-14T02:32:02.225Z,6.47
2018-12-14T02:34:30.525Z,6.43
2018-12-14T02:36:58.831Z,6.20
2018-12-14T02:39:27.146Z,5.07
2018-12-14T02:41:55.437Z,6.83
2018-12-14T02:44:23.720Z,5.10
2018-12-14T02:46:52.070Z,9.20
2018-12-14T02:49:20.349Z,10.83
2018-12-14T02:51:48.950Z,9.47
2018-12-14T02:54:17.314Z,5.37
2018-12-14T02:56:45.604Z,6.40
2018-12-14T02:59:13.913Z,4.93
2018-12-14T03:01:42.235Z,6.17
2018-12-14T03:04:10.750Z,6.83
2018-12-14T03:06:39.833Z,9.03
2018-12-14T03:09:08.280Z,9.23
2018-12-14T03:11:37.921Z,11.63
2018-12-14T03:14:06.196Z,10.63
2018-12-14T03:16:34.504Z,16.17
2018-12-14T03:19:05.847Z,17.13
2018-12-14T03:21:34.675Z,18.90
2018-12-14T03:24:03.049Z,19.40
2018-12-14T03:26:31.327Z,21.13
2018-12-14T03:28:59.640Z,19.33
2018-12-14T03:31:28.396Z,19.40
2018-12-14T03:33:56.759Z,17.77
2018-12-14T03:36:25.069Z,22.70
2018-12-14T03:38:53.372Z,23.20
2018-12-14T03:41:22.015Z,23.00
2018-12-14T03:43:50.261Z,27.17
2018-12-14T03:46:18.539Z,24.87
2018-12-14T03:48:46.848Z,24.33
2018-12-14T03:51:17.351Z,26.93
2018-12-14T03:53:45.632Z,24.97
2018-12-14T03:56:13.973Z,29.40
2018-12-14T03:58:42.267Z,28.83
2018-12-14T04:01:12.336Z,29.13
2018-12-14T04:03:40.676Z,30.80
2018-12-14T04:06:09.136Z,27.93
2018-12-14T04:08:39.491Z,28.00
2018-12-14T04:11:08.593Z,24.63
2018-12-14T04:13:36.896Z,26.13
2018-12-14T04:16:05.207Z,25.17
2018-12-14T04:18:33.561Z,28.23
2018-12-14T04:21:01.868Z,26.10
2018-12-14T04:23:30.179Z,26.90
2018-12-14T04:25:58.471Z,24.80
2018-12-14T04:28:26.749Z,21.70
2018-12-14T04:30:55.069Z,22.93
2018-12-14T04:33:23.636Z,23.67
2018-12-14T04:35:52.481Z,20.70
2018-12-14T04:38:22.869Z,19.47
2018-12-14T04:40:51.200Z,23.13
2018-12-14T04:43:19.489Z,17.30
2018-12-14T04:45:47.800Z,18.13
2018-12-14T04:48:16.069Z,19.20
2018-12-14T04:50:44.421Z,19.67
2018-12-14T04:53:12.809Z,18.17
2018-12-14T04:55:41.487Z,16.93
2018-12-14T04:58:09.762Z,14.87
2018-12-14T05:00:38.069Z,12.00
2018-12-14T05:03:06.410Z,14.60
2018-12-14T05:05:34.996Z,12.00
2018-12-14T05:08:08.596Z,11.53
2018-12-14T05:10:36.924Z,13.03
2018-12-14T05:13:05.774Z,12.53
2018-12-14T05:15:34.348Z,11.57
2018-12-14T05:18:02.676Z,11.83
2018-12-14T05:20:30.991Z,12.87
2018-12-14T05:22:59.340Z,11.80
2018-12-14T05:25:27.659Z,14.97
2018-12-14T05:27:55.937Z,14.40
2018-12-14T05:30:24.285Z,17.10
2018-12-14T05:32:52.612Z,18.00
2018-12-14T05:35:20.925Z,20.90
2018-12-14T05:37:49.235Z,22.90
2018-12-14T05:40:18.360Z,16.77
2018-12-14T05:42:46.680Z,17.03
2018-12-14T05:45:15.053Z,19.67
2018-12-14T05:47:44.136Z,22.33
2018-12-14T05:50:12.412Z,16.60
2018-12-14T05:52:40.712Z,18.53
2018-12-14T05:55:09.065Z,17.40
2018-12-14T05:57:37.761Z,15.40
2018-12-14T06:00:09.005Z,15.00
2018-12-14T06:02:37.291Z,14.73
2018-12-14T06:05:05.774Z,17.40
2018-12-14T06:07:34.113Z,19.33
2018-12-14T06:10:02.917Z,16.03
2018-12-14T06:12:31.500Z,20.97
2018-12-14T06:14:59.868Z,19.37
2018-12-14T06:17:29.072Z,16.73
2018-12-14T06:19:57.347Z,16.87
2018-12-14T06:22:25.869Z,19.77
2018-12-14T06:24:54.703Z,19.23
2018-12-14T06:27:25.840Z,22.40
2018-12-14T06:29:54.120Z,20.37
2018-12-14T06:32:22.432Z,17.33
2018-12-14T06:34:50.749Z,14.47
2018-12-14T06:37:19.317Z,17.93
2018-12-14T06:39:47.675Z,17.53
2018-12-14T06:42:16.279Z,20.47
2018-12-14T06:44:44.748Z,16.63
2018-12-14T06:47:13.166Z,21.10
2018-12-14T06:49:41.547Z,18.93
2018-12-14T06:52:09.864Z,18.43
2018-12-14T06:54:38.612Z,23.77
2018-12-14T06:57:06.983Z,15.47
2018-12-14T06:59:35.297Z,19.17
2018-12-14T07:02:03.648Z,18.87
2018-12-14T07:04:33.292Z,21.50
2018-12-14T07:07:04.251Z,23.93
2018-12-14T07:09:33.056Z,21.60
2018-12-14T07:12:01.380Z,22.53
2018-12-14T07:14:29.669Z,18.67
2018-12-14T07:16:58.024Z,24.27
2018-12-14T07:19:26.349Z,19.97
2018-12-14T07:21:54.758Z,19.83
2018-12-14T07:24:23.349Z,25.83
2018-12-14T07:26:51.924Z,21.43
2018-12-14T07:29:20.229Z,24.70
2018-12-14T07:31:48.628Z,19.63
2018-12-14T07:34:16.939Z,21.13
2018-12-14T07:36:45.240Z,19.87
2018-12-14T07:39:13.645Z,16.70
2018-12-14T07:41:42.253Z,18.27
2018-12-14T07:44:10.604Z,17.47
2018-12-14T07:46:39.077Z,22.43
2018-12-14T07:49:07.397Z,21.87
2018-12-14T07:51:35.768Z,19.50
2018-12-14T07:54:04.105Z,23.10
2018-12-14T07:56:32.392Z,19.37
2018-12-14T07:59:01.018Z,24.30
2018-12-14T08:01:29.596Z,23.47
2018-12-14T08:03:57.908Z,21.67
2018-12-14T08:06:26.404Z,21.87
2018-12-14T08:08:54.717Z,19.40
2018-12-14T08:11:23.283Z,19.07
2018-12-14T08:13:51.572Z,22.63
2018-12-14T08:16:19.925Z,21.97
2018-12-14T08:18:48.261Z,22.67
2018-12-14T08:21:16.558Z,23.50
2018-12-14T08:23:44.892Z,23.50
2018-12-14T08:26:13.256Z,21.03
2018-12-14T08:28:41.541Z,18.23
2018-12-14T08:31:09.857Z,27.13
2018-12-14T08:33:38.214Z,20.97
2018-12-14T08:36:06.540Z,9.13
2018-12-14T08:38:35.132Z,26.10
2018-12-14T08:41:03.460Z,21.13
2018-12-14T08:43:31.992Z,19.00
2018-12-14T08:46:00.268Z,21.73
2018-12-14T08:48:28.786Z,23.30
2018-12-14T08:50:57.149Z,18.37
2018-12-14T08:53:25.700Z,24.30
2018-12-14T08:55:54.170Z,21.57
2018-12-14T08:58:22.476Z,20.20
2018-12-14T09:00:50.820Z,16.37
2018-12-14T09:03:19.179Z,19.40
2018-12-14T09:05:48.368Z,22.03
2018-12-14T09:08:16.715Z,19.77
2018-12-14T09:10:45.006Z,22.43
2018-12-14T09:13:13.296Z,18.77
2018-12-14T09:15:41.600Z,24.30
2018-12-14T09:18:09.889Z,21.00
2018-12-14T09:20:38.423Z,16.67
2018-12-14T09:23:06.782Z,18.97
2018-12-14T09:25:41.767Z,19.70
2018-12-14T09:28:10.096Z,20.70
2018-12-14T09:30:42.660Z,21.20
2018-12-14T09:33:09.092Z,21.57
2018-12-14T09:35:37.660Z,19.00
2018-12-14T09:38:07.077Z,16.97
2018-12-14T09:40:35.707Z,17.77
2018-12-14T09:43:04.151Z,16.70
2018-12-14T09:45:32.727Z,18.53
2018-12-14T09:48:01.033Z,11.43
2018-12-14T09:50:29.320Z,22.83
2018-12-14T09:52:57.616Z,18.10
2018-12-14T09:55:27.668Z,19.07
2018-12-14T09:57:55.963Z,18.97
2018-12-14T10:00:24.549Z,17.90
2018-12-14T10:02:52.880Z,15.97
2018-12-14T10:05:21.188Z,17.97
2018-12-14T10:07:49.607Z,15.87
2018-12-14T10:10:18.212Z,13.67
2018-12-14T10:12:46.494Z,15.23
2018-12-14T10:15:14.860Z,14.93
2018-12-14T10:17:43.208Z,13.40
2018-12-14T10:20:11.520Z,17.37
2018-12-14T10:22:41.610Z,20.87
2018-12-14T10:25:10.083Z,15.07
2018-12-14T10:27:39.573Z,16.23
2018-12-14T10:30:08.506Z,16.87
2018-12-14T10:32:36.976Z,15.07
2018-12-14T10:35:06.571Z,15.40
2018-12-14T10:37:35.256Z,19.20
2018-12-14T10:40:04.215Z,19.10
2018-12-14T10:42:32.592Z,20.00
2018-12-14T10:45:00.933Z,21.27
2018-12-14T10:47:29.205Z,24.53
2018-12-14T10:49:57.799Z,21.40
2018-12-14T10:52:26.076Z,20.80
2018-12-14T10:54:54.581Z,22.77
2018-12-14T10:57:22.935Z,20.37
2018-12-14T10:59:51.252Z,22.40
2018-12-14T11:02:19.597Z,21.03
2018-12-14T11:04:47.936Z,20.00
2018-12-14T11:07:16.313Z,23.47
2018-12-14T11:09:44.646Z,21.13
2018-12-14T11:12:12.980Z,21.00
2018-12-14T11:14:41.322Z,19.90
2018-12-14T11:17:09.724Z,19.23
2018-12-14T11:19:38.011Z,28.17
2018-12-14T11:22:06.317Z,19.37
2018-12-14T11:24:34.648Z,15.20
2018-12-14T11:27:03.400Z,14.83
2018-12-14T11:29:31.718Z,25.90
2018-12-14T11:32:01.320Z,23.97
2018-12-14T11:34:29.995Z,24.33
2018-12-14T11:36:58.552Z,21.73
2018-12-14T11:39:26.940Z,23.43
2018-12-14T11:41:56.817Z,20.70
2018-12-14T11:44:25.113Z,17.53
2018-12-14T11:46:53.420Z,19.40
2018-12-14T11:49:21.705Z,19.07
2018-12-14T11:51:50.057Z,20.47
2018-12-14T11:54:18.349Z,20.03
2018-12-14T11:56:46.854Z,22.97
2018-12-14T11:59:15.538Z,29.03
2018-12-14T12:01:43.864Z,23.57
2018-12-14T12:04:13.428Z,14.87
2018-12-14T12:06:41.732Z,18.20
2018-12-14T12:09:11.614Z,19.63
2018-12-14T12:11:39.961Z,19.60
2018-12-14T12:14:08.243Z,22.80
2018-12-14T12:16:36.556Z,19.57
2018-12-14T12:19:04.924Z,17.33
2018-12-14T12:21:33.554Z,22.13
2018-12-14T12:24:01.869Z,20.93
2018-12-14T12:26:30.583Z,22.70
2018-12-14T12:28:58.976Z,22.53
2018-12-14T12:31:27.292Z,22.23
2018-12-14T12:33:55.608Z,26.63
2018-12-14T12:36:23.952Z,19.40
2018-12-14T12:38:52.293Z,19.03
2018-12-14T12:41:20.729Z,22.90
2018-12-14T12:43:49.048Z,19.77
2018-12-14T12:46:17.917Z,19.30
2018-12-14T12:48:46.407Z,19.43
2018-12-14T12:51:15.007Z,22.40
2018-12-14T12:53:44.340Z,19.20
2018-12-14T12:56:12.710Z,21.97
2018-12-14T12:58:41.033Z,19.83
2018-12-14T13:01:09.384Z,20.93
2018-12-14T13:03:37.707Z,26.40
2018-12-14T13:06:06.124Z,21.67
2018-12-14T13:08:34.440Z,29.50
2018-12-14T13:11:02.792Z,22.53
2018-12-14T13:13:31.476Z,26.80
2018-12-14T13:15:59.747Z,24.67
2018-12-14T13:18:28.088Z,25.27
2018-12-14T13:20:56.363Z,24.40
2018-12-14T13:23:25.897Z,25.80
2018-12-14T13:25:54.217Z,28.10
2018-12-14T13:28:23.170Z,24.57
2018-12-14T13:30:52.504Z,24.20
2018-12-14T13:33:21.076Z,25.27
2018-12-14T13:35:49.678Z,26.73
2018-12-14T13:38:18.017Z,22.97
2018-12-14T13:40:46.477Z,19.40
2018-12-14T13:43:14.875Z,29.33
2018-12-14T13:45:43.225Z,23.83
2018-12-14T13:48:11.591Z,23.17
2018-12-14T13:50:40.193Z,32.13
2018-12-14T13:53:08.925Z,26.43
2018-12-14T13:55:37.287Z,23.30
2018-12-14T13:58:05.579Z,22.43
2018-12-14T14:00:33.992Z,20.67
2018-12-14T14:03:02.381Z,25.57
2018-12-14T14:05:31.075Z,26.40
2018-12-14T14:07:59.417Z,22.83
2018-12-14T14:10:27.811Z,21.17
2018-12-14T14:12:56.128Z,22.50
2018-12-14T14:15:24.468Z,22.00
2018-12-14T14:17:53.836Z,18.83
2018-12-14T14:20:22.254Z,20.23
2018-12-14T14:22:50.617Z,18.27
2018-12-14T14:25:18.931Z,21.90
2018-12-14T14:27:47.288Z,20.87
2018-12-14T14:30:15.873Z,20.70
2018-12-14T14:32:44.304Z,23.37
2018-12-14T14:35:13.707Z,19.90
2018-12-14T14:37:42.069Z,16.60
2018-12-14T14:40:11.501Z,20.13
2018-12-14T14:42:40.589Z,19.97
2018-12-14T14:45:08.928Z,19.10
2018-12-14T14:47:37.248Z,18.87
2018-12-14T14:50:07.761Z,16.77
2018-12-14T14:52:36.330Z,19.57
2018-12-14T14:55:05.204Z,12.07
2018-12-14T14:57:34.796Z,8.30
2018-12-14T15:00:04.664Z,10.77
2018-12-14T15:02:33.108Z,11.43
2018-12-14T15:05:01.658Z,11.63
2018-12-14T15:07:30.721Z,12.73
2018-12-14T15:09:59.424Z,12.53
2018-12-14T15:12:27.784Z,13.87
2018-12-14T15:14:56.118Z,13.40
2018-12-14T15:17:24.540Z,14.23
2018-12-14T15:19:52.965Z,11.27
2018-12-14T15:22:21.541Z,17.57
2018-12-14T15:24:49.948Z,15.30
2018-12-14T15:27:18.840Z,12.17
2018-12-14T15:29:47.464Z,19.13
2018-12-14T15:32:16.432Z,15.83
2018-12-14T15:34:44.817Z,16.70
2018-12-14T15:37:13.568Z,16.77
2018-12-14T15:39:44.197Z,16.20
2018-12-14T15:42:12.531Z,16.10
2018-12-14T15:44:40.943Z,18.50
2018-12-14T15:47:09.364Z,17.47
2018-12-14T15:49:38.191Z,18.77
2018-12-14T15:52:07.400Z,21.23
2018-12-14T15:54:35.780Z,17.30
2018-12-14T15:57:04.104Z,18.57
2018-12-14T15:59:32.421Z,13.17
2018-12-14T16:02:00.736Z,13.70
2018-12-14T16:04:29.046Z,15.10
2018-12-14T16:06:57.423Z,15.13
2018-12-14T16:09:26.516Z,17.60
2018-12-14T16:11:54.909Z,16.90
2018-12-14T16:14:23.470Z,14.57
2018-12-14T16:16:52.312Z,12.47
2018-12-14T16:19:20.710Z,8.17
2018-12-14T16:21:49.288Z,14.10
2018-12-14T16:24:17.921Z,9.73
2018-12-14T16:26:46.305Z,12.20
2018-12-14T16:29:15.127Z,14.40
2018-12-14T16:31:50.032Z,11.17
2018-12-14T16:34:18.388Z,15.67
2018-12-14T16:36:47.569Z,18.23
2018-12-14T16:39:16.423Z,17.90
2018-12-14T16:41:45.354Z,21.03
2018-12-14T16:44:13.667Z,17.67
2018-12-14T16:46:42.048Z,18.83
2018-12-14T16:49:10.428Z,22.07
2018-12-14T16:51:39.212Z,15.53
2018-12-14T16:54:07.713Z,17.37
2018-12-14T16:56:36.028Z,20.33
2018-12-14T16:59:04.425Z,19.23
2018-12-14T17:01:32.766Z,17.97
2018-12-14T17:04:01.215Z,19.17
2018-12-14T17:09:06.625Z,15.93
2018-12-14T17:11:36.977Z,20.87
2018-12-14T17:14:05.363Z,12.87
2018-12-14T17:16:33.743Z,15.60
2018-12-14T17:19:02.064Z,14.63
2018-12-14T17:21:30.505Z,16.50
2018-12-14T17:23:58.872Z,18.77
2018-12-14T17:26:27.256Z,15.73
2018-12-14T17:28:55.572Z,17.33
2018-12-14T17:31:25.082Z,14.10
2018-12-14T17:33:53.511Z,16.23
2018-12-14T17:36:21.892Z,17.43
2018-12-14T17:38:50.336Z,20.53
2018-12-14T17:41:18.997Z,12.27
2018-12-14T17:43:47.361Z,13.17
2018-12-14T17:46:15.836Z,13.23
2018-12-14T17:48:44.181Z,15.67
2018-12-14T17:51:12.654Z,16.97
2018-12-14T17:53:41.034Z,18.57
2018-12-14T17:56:10.725Z,18.40
2018-12-14T17:58:39.107Z,19.87
2018-12-14T18:01:07.504Z,16.50
2018-12-14T18:03:35.862Z,19.93
2018-12-14T18:06:04.179Z,14.43
2018-12-14T18:08:32.748Z,14.43
2018-12-14T18:11:01.084Z,12.33
2018-12-14T18:13:29.472Z,16.43
2018-12-14T18:15:57.801Z,15.87
2018-12-14T18:18:26.138Z,21.87
2018-12-14T18:20:54.493Z,24.73
2018-12-14T18:23:24.037Z,29.47
2018-12-14T18:25:52.364Z,21.00
2018-12-14T18:28:20.802Z,15.00
2018-12-14T18:30:49.120Z,16.67
2018-12-14T18:33:19.626Z,12.07
2018-12-14T18:35:48.685Z,25.50
2018-12-14T18:38:17.032Z,53.47
2018-12-14T18:40:45.392Z,36.97
2018-12-14T18:43:13.816Z,15.47
2018-12-14T18:45:42.156Z,14.43
2018-12-14T18:48:10.489Z,33.10
2018-12-14T18:50:38.928Z,26.87
2018-12-14T18:53:07.411Z,12.60
2018-12-14T18:55:35.810Z,28.63
2018-12-14T18:58:04.549Z,17.03
2018-12-14T19:00:32.980Z,20.17
2018-12-14T19:03:01.508Z,30.87
2018-12-14T19:05:29.975Z,37.93
2018-12-14T19:07:58.378Z,34.77
2018-12-14T19:10:27.011Z,21.47
2018-12-14T19:12:55.500Z,37.30
2018-12-14T19:15:23.824Z,42.83
2018-12-14T19:17:52.136Z,43.73
2018-12-14T19:20:20.548Z,20.50
2018-12-14T19:22:49.066Z,29.87
2018-12-14T19:25:17.431Z,42.00
2018-12-14T19:27:46.806Z,39.67
2018-12-14T19:30:15.097Z,27.17
2018-12-14T19:32:43.450Z,15.90
2018-12-14T19:35:11.790Z,17.50
2018-12-14T19:37:41.523Z,29.87
2018-12-14T19:40:10.336Z,21.53
2018-12-14T19:42:41.577Z,25.13
2018-12-14T19:45:10.267Z,33.47
2018-12-14T19:47:38.713Z,12.17
2018-12-14T19:50:07.748Z,7.07
2018-12-14T19:52:36.313Z,15.93
2018-12-14T19:55:06.395Z,24.17
2018-12-14T19:57:34.715Z,29.87
2018-12-14T20:00:04.116Z,21.87
2018-12-14T20:02:32.875Z,21.60
2018-12-14T20:05:01.177Z,20.23
2018-12-14T20:07:29.647Z,13.47
2018-12-14T20:09:58.064Z,4.73
2018-12-14T20:12:26.393Z,7.90
2018-12-14T20:14:54.697Z,8.20
2018-12-14T20:17:23.118Z,9.20
2018-12-14T20:19:51.808Z,11.87
2018-12-14T20:22:20.144Z,11.77
2018-12-14T20:24:48.436Z,9.87
2018-12-14T20:27:16.778Z,7.67
2018-12-14T20:29:45.869Z,7.63
2018-12-14T20:32:14.149Z,10.93
2018-12-14T20:34:42.497Z,12.33
2018-12-14T20:37:10.807Z,8.07
2018-12-14T20:39:39.193Z,5.93
2018-12-14T20:42:07.470Z,10.53
2018-12-14T20:44:35.792Z,9.00
2018-12-14T20:47:04.124Z,9.83
2018-12-14T20:49:32.426Z,10.83
2018-12-14T20:52:00.732Z,8.27
2018-12-14T20:54:29.286Z,9.70
2018-12-14T20:56:57.585Z,8.77
2018-12-14T20:59:26.358Z,11.07
2018-12-14T21:01:54.731Z,12.57
2018-12-14T21:04:23.062Z,6.63
2018-12-14T21:06:51.399Z,7.87
2018-12-14T21:09:19.699Z,8.30
2018-12-14T21:11:48.032Z,10.43
2018-12-14T21:14:16.507Z,10.33
2018-12-14T21:16:44.802Z,6.03
2018-12-14T21:19:13.113Z,7.67
2018-12-14T21:21:42.879Z,8.67
2018-12-14T21:24:11.237Z,8.80
2018-12-14T21:26:39.977Z,10.07
2018-12-14T21:29:08.431Z,10.97
2018-12-14T21:31:36.717Z,10.57
2018-12-14T21:34:05.055Z,10.60
2018-12-14T21:36:33.414Z,15.53
2018-12-14T21:39:01.979Z,34.93
2018-12-14T21:41:32.384Z,29.60
2018-12-14T21:44:00.795Z,34.13
2018-12-14T21:46:32.520Z,33.13
2018-12-14T21:48:59.667Z,16.30
2018-12-14T21:51:28.047Z,12.63
2018-12-14T21:53:56.564Z,9.43
2018-12-14T21:56:25.039Z,9.77
2018-12-14T21:58:53.491Z,14.73
2018-12-14T22:01:21.819Z,7.47
2018-12-14T22:03:50.181Z,17.33
2018-12-14T22:06:18.516Z,34.07
2018-12-14T22:08:47.047Z,28.30
2018-12-14T22:11:15.330Z,24.17
2018-12-14T22:13:43.772Z,33.57
2018-12-14T22:16:12.051Z,15.30
2018-12-14T22:18:41.574Z,31.93
2018-12-14T22:21:09.925Z,32.27
2018-12-14T22:23:38.225Z,32.07
2018-12-14T22:26:06.577Z,27.13
2018-12-14T22:28:34.924Z,27.70
2018-12-14T22:31:03.240Z,29.03
2018-12-14T22:33:32.603Z,17.87
2018-12-14T22:36:00.932Z,29.60
2018-12-14T22:38:29.480Z,25.33
2018-12-14T22:40:57.828Z,29.87
2018-12-14T22:43:26.172Z,23.10
2018-12-14T22:45:54.506Z,19.37
2018-12-14T22:48:22.812Z,24.53
2018-12-14T22:50:51.144Z,25.13
2018-12-14T22:53:19.764Z,37.87
2018-12-14T22:55:48.048Z,20.40
2018-12-14T22:58:16.636Z,17.00
2018-12-14T23:00:50.379Z,12.07
2018-12-14T23:03:18.865Z,13.93
2018-12-14T23:05:47.357Z,19.10
2018-12-14T23:08:17.295Z,20.00
2018-12-14T23:10:45.586Z,14.63
2018-12-14T23:13:14.245Z,15.53
2018-12-14T23:15:42.552Z,15.77
2018-12-14T23:18:10.884Z,28.83
2018-12-14T23:20:39.184Z,35.10
2018-12-14T23:23:07.509Z,30.17
2018-12-14T23:25:37.680Z,30.07
2018-12-14T23:28:06.046Z,29.10
2018-12-14T23:30:34.369Z,29.60
2018-12-14T23:33:03.460Z,25.17
2018-12-14T23:35:31.807Z,23.63
2018-12-14T23:38:00.136Z,25.50
2018-12-14T23:40:31.986Z,19.73
2018-12-14T23:43:00.715Z,15.87
2018-12-14T23:45:29.015Z,14.97
2018-12-14T23:47:57.371Z,14.83
2018-12-14T23:50:25.745Z,14.37
2018-12-14T23:52:54.104Z,14.10
2018-12-14T23:55:22.679Z,14.67
2018-12-14T23:57:51.002Z,11.90
